createdAt,value
2022-11-26T00:00:48.217Z,101426.47
2022-11-26T00:03:15.721Z,101435.31
2022-11-26T00:05:44.331Z,101425.81
2022-11-26T00:08:20.877Z,101431.09
2022-11-26T00:10:53.233Z,101432.84
2022-11-26T00:13:25.655Z,101428.47
2022-11-26T00:15:53.275Z,101431.78
2022-11-26T00:18:20.422Z,101435.25
2022-11-26T00:20:51.020Z,101436.91
2022-11-26T00:23:23.980Z,101443.03
2022-11-26T00:25:59.826Z,101435.25
2022-11-26T00:28:34.974Z,101448.19
2022-11-26T00:31:06.975Z,101442.09
2022-11-26T00:33:34.137Z,101449.19
2022-11-26T00:36:12.611Z,101446.63
2022-11-26T00:38:39.843Z,101450.09
2022-11-26T00:41:17.810Z,101450.94
2022-11-26T00:43:45.992Z,101450.94
2022-11-26T00:46:17.064Z,101456.94
2022-11-26T00:48:44.348Z,101462.22
2022-11-26T00:51:23.624Z,101467.44
2022-11-26T00:53:55.844Z,101473.56
2022-11-26T00:56:23.540Z,101469.97
2022-11-26T00:58:51.129Z,101469.97
2022-11-26T01:01:20.864Z,101467.31
2022-11-26T01:03:48.298Z,101465.56
2022-11-26T01:06:31.639Z,101480.41
2022-11-26T01:08:58.909Z,101488.22
2022-11-26T01:11:26.479Z,101488.16
2022-11-26T01:13:54.883Z,101489.13
2022-11-26T01:16:29.735Z,101490.84
2022-11-26T01:18:58.465Z,101500.47
2022-11-26T01:21:27.618Z,101502.25
2022-11-26T01:23:54.826Z,101501.25
2022-11-26T01:26:27.611Z,101507.97
2022-11-26T01:28:55.515Z,101502.09
2022-11-26T01:31:24.992Z,101509.06
2022-11-26T01:33:52.875Z,101511.66
2022-11-26T01:36:22.843Z,101503.94
2022-11-26T01:38:52.130Z,101509.09
2022-11-26T01:41:34.154Z,101521.25
2022-11-26T01:44:01.282Z,101518.66
2022-11-26T01:46:30.374Z,101515.88
2022-11-26T01:49:27.879Z,101516.81
2022-11-26T01:52:03.789Z,101518.59
2022-11-26T01:54:31.814Z,101526.38
2022-11-26T01:57:07.954Z,101526.22
2022-11-26T01:59:37.619Z,101524.41
2022-11-26T02:02:04.747Z,101526.25
2022-11-26T02:04:38.841Z,101528.78
2022-11-26T02:07:06.030Z,101521.75
2022-11-26T02:09:33.289Z,101528.00
2022-11-26T02:12:00.551Z,101526.31
2022-11-26T02:14:32.881Z,101530.75
2022-11-26T02:17:05.715Z,101529.88
2022-11-26T02:20:06.690Z,101531.63
2022-11-26T02:22:51.797Z,101544.69
2022-11-26T02:25:32.578Z,101543.84
2022-11-26T02:28:15.325Z,101551.69
2022-11-26T02:30:50.167Z,101551.59
2022-11-26T02:33:22.196Z,101555.88
2022-11-26T02:35:56.179Z,101560.25
2022-11-26T02:38:25.627Z,101565.44
2022-11-26T02:40:53.007Z,101567.16
2022-11-26T02:43:20.373Z,101568.91
2022-11-26T02:45:55.709Z,101568.84
2022-11-26T02:48:27.743Z,101564.44
2022-11-26T02:50:58.534Z,101565.38
2022-11-26T02:53:27.189Z,101572.22
2022-11-26T02:56:08.087Z,101570.53
2022-11-26T02:58:35.622Z,101578.34
2022-11-26T03:01:07.332Z,101575.00
2022-11-26T03:03:37.598Z,101571.38
2022-11-26T03:06:09.637Z,101566.31
2022-11-26T03:08:37.745Z,101567.16
2022-11-26T03:11:05.574Z,101564.44
2022-11-26T03:13:32.884Z,101566.16
2022-11-26T03:16:00.018Z,101567.94
2022-11-26T03:18:27.194Z,101570.53
2022-11-26T03:20:54.325Z,101574.88
2022-11-26T03:23:21.465Z,101581.94
2022-11-26T03:25:48.603Z,101585.47
2022-11-26T03:28:16.382Z,101588.97
2022-11-26T03:30:43.510Z,101590.72
2022-11-26T03:33:10.609Z,101593.31
2022-11-26T03:35:37.784Z,101600.34
2022-11-26T03:38:04.973Z,101599.41
2022-11-26T03:40:32.087Z,101605.50
2022-11-26T03:42:59.247Z,101601.13
2022-11-26T03:45:26.402Z,101606.31
2022-11-26T03:47:53.590Z,101603.78
2022-11-26T03:50:20.733Z,101603.75
2022-11-26T03:52:47.883Z,101612.44
2022-11-26T03:55:15.065Z,101601.97
2022-11-26T03:57:42.204Z,101607.00
2022-11-26T04:00:10.338Z,101617.50
2022-11-26T04:02:37.660Z,101619.25
2022-11-26T04:05:05.266Z,101621.66
2022-11-26T04:07:32.589Z,101633.13
2022-11-26T04:09:59.869Z,101628.59
2022-11-26T04:12:26.955Z,101633.91
2022-11-26T04:14:54.051Z,101634.91
2022-11-26T04:17:21.141Z,101636.75
2022-11-26T04:19:48.241Z,101629.84
2022-11-26T04:22:15.383Z,101629.00
2022-11-26T04:24:42.500Z,101637.69
2022-11-26T04:27:09.767Z,101642.84
2022-11-26T04:29:37.400Z,101643.53
2022-11-26T04:32:05.297Z,101654.94
2022-11-26T04:34:32.800Z,101657.56
2022-11-26T04:36:59.927Z,101656.63
2022-11-26T04:39:27.066Z,101661.59
2022-11-26T04:41:54.238Z,101665.97
2022-11-26T04:44:21.342Z,101667.81
2022-11-26T04:46:48.492Z,101668.81
2022-11-26T04:49:15.698Z,101667.91
2022-11-26T04:51:42.803Z,101675.75
2022-11-26T04:54:12.939Z,101678.38
2022-11-26T04:56:40.530Z,101685.47
2022-11-26T04:59:07.860Z,101685.44
2022-11-26T05:01:35.461Z,101685.38
2022-11-26T05:04:05.843Z,101693.25
2022-11-26T05:06:33.474Z,101704.56
2022-11-26T05:09:00.848Z,101710.66
2022-11-26T05:11:28.150Z,101706.34
2022-11-26T05:13:55.375Z,101713.28
2022-11-26T05:16:22.557Z,101708.94
2022-11-26T05:18:49.760Z,101721.84
2022-11-26T05:21:16.900Z,101721.78
2022-11-26T05:23:44.041Z,101728.00
2022-11-26T05:26:11.193Z,101724.47
2022-11-26T05:28:38.323Z,101717.53
2022-11-26T05:31:05.578Z,101720.13
2022-11-26T05:33:32.755Z,101735.84
2022-11-26T05:35:59.901Z,101725.44
2022-11-26T05:38:27.083Z,101736.72
2022-11-26T05:40:54.295Z,101749.94
2022-11-26T05:43:21.866Z,101749.97
2022-11-26T05:45:49.058Z,101744.66
2022-11-26T05:48:16.815Z,101750.00
2022-11-26T05:50:43.999Z,101753.47
2022-11-26T05:53:11.315Z,101754.47
2022-11-26T05:55:38.593Z,101756.22
2022-11-26T05:58:05.724Z,101757.19
2022-11-26T06:00:32.858Z,101763.03
2022-11-26T06:03:00.048Z,101764.88
2022-11-26T06:05:27.328Z,101764.94
2022-11-26T06:07:54.572Z,101772.84
2022-11-26T06:10:21.758Z,101771.16
2022-11-26T06:12:49.293Z,101768.59
2022-11-26T06:15:16.472Z,101784.13
2022-11-26T06:17:43.631Z,101785.94
2022-11-26T06:20:11.373Z,101786.75
2022-11-26T06:22:39.113Z,101794.66
2022-11-26T06:25:10.712Z,101792.13
2022-11-26T06:27:38.024Z,101800.69
2022-11-26T06:30:07.561Z,101808.56
2022-11-26T06:32:34.835Z,101815.63
2022-11-26T06:35:02.005Z,101816.47
2022-11-26T06:37:29.100Z,101819.94
2022-11-26T06:39:56.270Z,101816.47
2022-11-26T06:42:23.397Z,101827.81
2022-11-26T06:44:50.541Z,101828.66
2022-11-26T06:47:17.648Z,101831.22
2022-11-26T06:49:44.730Z,101836.41
2022-11-26T06:52:13.235Z,101839.88
2022-11-26T06:54:40.667Z,101840.00
2022-11-26T06:57:07.995Z,101840.88
2022-11-26T06:59:35.356Z,101842.66
2022-11-26T07:02:02.886Z,101848.75
2022-11-26T07:04:30.080Z,101849.75
2022-11-26T07:06:57.233Z,101851.38
2022-11-26T07:09:24.384Z,101861.69
2022-11-26T07:11:51.576Z,101866.19
2022-11-26T07:14:18.772Z,101870.63
2022-11-26T07:16:45.927Z,101864.47
2022-11-26T07:19:14.447Z,101872.34
2022-11-26T07:21:41.731Z,101883.72
2022-11-26T07:24:08.805Z,101878.53
2022-11-26T07:26:35.964Z,101872.38
2022-11-26T07:29:03.382Z,101874.94
2022-11-26T07:31:30.515Z,101881.97
2022-11-26T07:33:57.962Z,101881.97
2022-11-26T07:36:27.077Z,101882.03
2022-11-26T07:38:58.529Z,101885.38
2022-11-26T07:41:26.779Z,101882.69
2022-11-26T07:43:54.013Z,101889.56
2022-11-26T07:46:23.720Z,101893.16
2022-11-26T07:48:51.205Z,101899.25
2022-11-26T07:51:22.669Z,101895.78
2022-11-26T07:53:50.427Z,101896.69
2022-11-26T07:56:18.471Z,101901.09
2022-11-26T07:58:45.973Z,101903.66
2022-11-26T08:01:18.621Z,101905.47
2022-11-26T08:03:47.999Z,101907.19
2022-11-26T08:06:17.804Z,101909.75
2022-11-26T08:08:45.218Z,101914.94
2022-11-26T08:11:18.563Z,101918.38
2022-11-26T08:13:47.469Z,101920.13
2022-11-26T08:16:15.661Z,101928.03
2022-11-26T08:18:42.956Z,101926.25
2022-11-26T08:21:10.209Z,101930.59
2022-11-26T08:23:37.325Z,101933.16
2022-11-26T08:28:56.759Z,101943.47
2022-11-26T08:31:24.960Z,101945.22
2022-11-26T08:33:52.146Z,101946.09
2022-11-26T08:36:19.283Z,101943.41
2022-11-26T08:38:46.419Z,101947.78
2022-11-26T08:41:13.952Z,101958.09
2022-11-26T08:46:28.358Z,101959.06
2022-11-26T08:48:59.260Z,101964.19
2022-11-26T08:51:26.372Z,101967.81
2022-11-26T08:53:53.514Z,101968.75
2022-11-26T08:56:20.656Z,101963.50
2022-11-26T08:58:48.892Z,101970.50
2022-11-26T09:01:21.767Z,101982.63
2022-11-26T09:03:53.139Z,101981.00
2022-11-26T09:06:21.569Z,101982.75
2022-11-26T09:09:07.385Z,101984.50
2022-11-26T09:11:38.713Z,101989.72
2022-11-26T09:14:06.144Z,101992.22
2022-11-26T09:16:33.563Z,101999.16
2022-11-26T09:19:02.368Z,101995.66
2022-11-26T09:21:29.889Z,102000.03
2022-11-26T09:23:57.048Z,102007.72
2022-11-26T09:26:25.649Z,102006.97
2022-11-26T09:28:52.815Z,102007.75
2022-11-26T09:31:20.385Z,102015.69
2022-11-26T09:33:47.669Z,102010.34
2022-11-26T09:36:16.807Z,102016.53
2022-11-26T09:38:44.623Z,102016.59
2022-11-26T09:41:35.725Z,102018.31
2022-11-26T09:44:08.261Z,102031.47
2022-11-26T09:47:10.019Z,102031.53
2022-11-26T09:49:39.665Z,102031.38
2022-11-26T09:52:08.444Z,102028.75
2022-11-26T09:54:39.027Z,102048.00
2022-11-26T09:57:20.323Z,102036.59
2022-11-26T09:59:49.730Z,102039.22
2022-11-26T10:02:16.920Z,102044.56
2022-11-26T10:04:44.130Z,102044.41
2022-11-26T10:07:50.921Z,102045.41
2022-11-26T10:10:26.432Z,102053.22
2022-11-26T10:13:20.910Z,102053.22
2022-11-26T10:15:47.963Z,102050.69
2022-11-26T10:18:33.555Z,102049.88
2022-11-26T10:21:57.252Z,102053.28
2022-11-26T10:24:20.587Z,102052.44
2022-11-26T10:26:48.674Z,102049.94
2022-11-26T10:29:24.610Z,102053.50
2022-11-26T10:32:07.798Z,102052.66
2022-11-26T10:34:43.479Z,102055.16
2022-11-26T10:37:10.774Z,102057.78
2022-11-26T10:39:37.884Z,102052.59
2022-11-26T10:42:14.730Z,102064.78
2022-11-26T10:44:42.165Z,102068.31
2022-11-26T10:47:21.498Z,102064.78
2022-11-26T10:49:49.544Z,102080.56
2022-11-26T10:52:20.999Z,102079.72
2022-11-26T10:55:07.526Z,102086.72
2022-11-26T10:57:36.869Z,102083.25
2022-11-26T11:00:04.497Z,102085.84
2022-11-26T11:02:41.473Z,102094.53
2022-11-26T11:05:09.762Z,102094.47
2022-11-26T11:07:36.981Z,102091.75
2022-11-26T11:10:09.964Z,102091.91
2022-11-26T11:12:41.369Z,102084.84
2022-11-26T11:15:24.987Z,102093.56
2022-11-26T11:18:00.975Z,102097.94
2022-11-26T11:20:37.461Z,102106.75
2022-11-26T11:23:10.483Z,102095.63
2022-11-26T11:25:43.909Z,102089.66
2022-11-26T11:28:21.669Z,102100.94
2022-11-26T11:31:08.949Z,102106.28
2022-11-26T11:33:36.291Z,102109.81
2022-11-26T11:36:03.398Z,102113.31
2022-11-26T11:38:47.900Z,102102.72
2022-11-26T11:41:33.046Z,102098.34
2022-11-26T11:44:22.297Z,102111.50
2022-11-26T11:47:13.686Z,102111.50
2022-11-26T11:49:55.663Z,102112.41
2022-11-26T11:52:41.714Z,102111.38
2022-11-26T11:55:14.582Z,102105.22
2022-11-26T11:58:26.375Z,102112.91
2022-11-26T12:01:25.140Z,102112.09
2022-11-26T12:04:15.075Z,102113.03
2022-11-26T12:06:48.023Z,102118.31
2022-11-26T12:09:15.169Z,102113.94
2022-11-26T12:11:55.088Z,102124.41
2022-11-26T12:14:41.618Z,102120.06
2022-11-26T12:17:21.339Z,102117.41
2022-11-26T12:19:56.259Z,102114.69
2022-11-26T12:22:43.581Z,102110.34
2022-11-26T12:25:33.543Z,102112.16
2022-11-26T12:28:23.195Z,102107.78
2022-11-26T12:31:07.216Z,102109.44
2022-11-26T12:33:49.048Z,102104.09
2022-11-26T12:36:36.078Z,102115.38
2022-11-26T12:39:04.880Z,102111.03
2022-11-26T12:41:37.574Z,102103.09
2022-11-26T12:44:13.417Z,102109.22
2022-11-26T12:46:47.310Z,102104.00
2022-11-26T12:49:43.246Z,102113.50
2022-11-26T12:52:39.649Z,102112.66
2022-11-26T12:55:12.954Z,102114.41
2022-11-26T12:57:44.733Z,102113.44
2022-11-26T13:00:16.337Z,102109.81
2022-11-26T13:02:48.025Z,102113.41
2022-11-26T13:05:35.145Z,102113.41
2022-11-26T13:08:24.274Z,102116.88
2022-11-26T13:11:09.877Z,102118.53
2022-11-26T13:13:43.092Z,102117.56
2022-11-26T13:16:29.188Z,102122.88
2022-11-26T13:18:57.093Z,102124.53
2022-11-26T13:21:48.951Z,102115.81
2022-11-26T13:24:21.806Z,102118.53
2022-11-26T13:27:13.789Z,102117.53
2022-11-26T13:29:59.504Z,102120.94
2022-11-26T13:32:50.442Z,102135.00
2022-11-26T13:36:04.244Z,102128.91
2022-11-26T13:38:49.225Z,102133.38
2022-11-26T13:41:53.714Z,102135.28
2022-11-26T13:44:23.498Z,102139.63
2022-11-26T13:46:53.299Z,102137.91
2022-11-26T13:49:29.386Z,102143.16
2022-11-26T13:52:17.223Z,102137.09
2022-11-26T13:55:09.658Z,102136.19
2022-11-26T13:57:47.910Z,102143.19
2022-11-26T14:00:26.654Z,102143.72
2022-11-26T14:02:53.783Z,102148.31
2022-11-26T14:05:21.077Z,102157.16
2022-11-26T14:07:48.298Z,102152.88
2022-11-26T14:10:34.105Z,102161.59
2022-11-26T14:13:03.985Z,102156.41
2022-11-26T14:15:43.073Z,102158.28
2022-11-26T14:18:15.121Z,102154.88
2022-11-26T14:20:57.383Z,102159.97
2022-11-26T14:23:47.509Z,102161.84
2022-11-26T14:26:25.526Z,102156.72
2022-11-26T14:29:04.932Z,102161.03
2022-11-26T14:31:33.379Z,102162.78
2022-11-26T14:34:08.870Z,102159.28
2022-11-26T14:36:35.943Z,102166.22
2022-11-26T14:39:10.201Z,102160.94
2022-11-26T14:41:43.514Z,102156.56
2022-11-26T14:44:15.305Z,102154.72
2022-11-26T14:46:45.584Z,102149.44
2022-11-26T14:49:18.529Z,102152.16
2022-11-26T14:51:46.866Z,102158.38
2022-11-26T14:54:17.943Z,102162.72
2022-11-26T14:56:46.780Z,102167.00
2022-11-26T14:59:17.940Z,102166.19
2022-11-26T15:01:46.279Z,102168.81
2022-11-26T15:04:28.363Z,102167.94
2022-11-26T15:06:55.796Z,102167.94
2022-11-26T15:09:25.557Z,102173.13
2022-11-26T15:12:05.113Z,102173.94
2022-11-26T15:14:42.481Z,102175.63
2022-11-26T15:17:15.895Z,102174.78
2022-11-26T15:19:43.402Z,102175.75
2022-11-26T15:22:21.998Z,102180.09
2022-11-26T15:24:52.829Z,102183.53
2022-11-26T15:27:37.896Z,102187.91
2022-11-26T15:30:29.164Z,102186.13
2022-11-26T15:33:00.121Z,102187.84
2022-11-26T15:35:27.835Z,102185.28
2022-11-26T15:37:55.097Z,102179.06
2022-11-26T15:40:55.885Z,102180.84
2022-11-26T15:43:35.564Z,102176.75
2022-11-26T15:46:05.409Z,102181.03
2022-11-26T15:48:51.960Z,102173.19
2022-11-26T15:51:40.931Z,102168.94
2022-11-26T15:54:21.608Z,102170.81
2022-11-26T15:56:51.899Z,102171.63
2022-11-26T15:59:20.479Z,102176.00
2022-11-26T16:01:47.720Z,102181.34
2022-11-26T16:04:32.927Z,102180.53
2022-11-26T16:07:09.052Z,102185.78
2022-11-26T16:09:36.171Z,102178.00
2022-11-26T16:12:03.540Z,102190.16
2022-11-26T16:14:36.073Z,102189.28
2022-11-26T16:17:10.547Z,102183.19
2022-11-26T16:19:48.893Z,102180.56
2022-11-26T16:22:17.462Z,102181.41
2022-11-26T16:24:44.739Z,102185.75
2022-11-26T16:27:17.953Z,102181.31
2022-11-26T16:29:45.333Z,102184.66
2022-11-26T16:32:13.523Z,102187.38
2022-11-26T16:34:41.173Z,102178.75
2022-11-26T16:37:28.205Z,102180.53
2022-11-26T16:40:12.470Z,102183.13
2022-11-26T16:42:39.633Z,102179.66
2022-11-26T16:45:07.490Z,102193.63
2022-11-26T16:47:39.339Z,102188.34
2022-11-26T16:50:13.375Z,102191.81
2022-11-26T16:52:41.836Z,102196.94
2022-11-26T16:55:13.616Z,102210.00
2022-11-26T16:57:41.225Z,102220.53
2022-11-26T17:00:15.780Z,102224.16
2022-11-26T17:02:43.016Z,102220.69
2022-11-26T17:05:10.627Z,102225.00
2022-11-26T17:07:46.900Z,102226.72
2022-11-26T17:10:22.158Z,102228.34
2022-11-26T17:12:52.242Z,102231.78
2022-11-26T17:15:19.345Z,102231.84
2022-11-26T17:17:46.501Z,102231.84
2022-11-26T17:20:19.062Z,102233.56
2022-11-26T17:22:46.596Z,102237.06
2022-11-26T17:25:14.223Z,102244.03
2022-11-26T17:27:41.895Z,102244.06
2022-11-26T17:30:17.498Z,102238.88
2022-11-26T17:32:44.650Z,102235.41
2022-11-26T17:35:11.792Z,102238.91
2022-11-26T17:37:39.319Z,102237.06
2022-11-26T17:40:20.075Z,102243.97
2022-11-26T17:42:47.747Z,102238.75
2022-11-26T17:45:15.513Z,102243.22
2022-11-26T17:47:43.027Z,102243.16
2022-11-26T17:50:30.675Z,102237.91
2022-11-26T17:52:57.867Z,102227.34
2022-11-26T17:55:26.427Z,102229.16
2022-11-26T17:57:55.139Z,102230.06
2022-11-26T18:00:28.304Z,102233.53
2022-11-26T18:02:56.028Z,102234.34
2022-11-26T18:05:24.052Z,102230.78
2022-11-26T18:07:51.571Z,102235.13
2022-11-26T18:10:20.255Z,102228.13
2022-11-26T18:12:48.055Z,102232.50
2022-11-26T18:15:21.457Z,102239.47
2022-11-26T18:17:50.876Z,102244.59
2022-11-26T18:20:21.350Z,102245.50
2022-11-26T18:22:56.982Z,102245.50
2022-11-26T18:25:23.977Z,102240.28
2022-11-26T18:27:51.703Z,102238.56
2022-11-26T18:30:19.497Z,102240.34
2022-11-26T18:32:46.706Z,102232.50
2022-11-26T18:35:13.891Z,102233.44
2022-11-26T18:37:41.216Z,102228.97
2022-11-26T18:40:11.591Z,102238.59
2022-11-26T18:42:39.016Z,102226.25
2022-11-26T18:45:07.690Z,102223.56
2022-11-26T18:47:34.865Z,102219.97
2022-11-26T18:50:02.068Z,102219.97
2022-11-26T18:52:29.370Z,102224.25
2022-11-26T18:54:56.499Z,102220.78
2022-11-26T18:57:23.620Z,102222.50
2022-11-26T18:59:51.422Z,102220.78
2022-11-26T19:02:18.621Z,102225.09
2022-11-26T19:04:45.836Z,102221.63
2022-11-26T19:07:14.179Z,102221.56
2022-11-26T19:09:42.285Z,102227.63
2022-11-26T19:12:11.879Z,102222.34
2022-11-26T19:14:39.096Z,102220.56
2022-11-26T19:17:06.301Z,102211.75
2022-11-26T19:19:33.588Z,102213.44
2022-11-26T19:22:01.879Z,102210.75
2022-11-26T19:24:30.125Z,102211.63
2022-11-26T19:26:57.504Z,102211.75
2022-11-26T19:29:24.661Z,102209.97
2022-11-26T19:31:51.835Z,102209.06
2022-11-26T19:34:18.992Z,102208.09
2022-11-26T19:36:48.466Z,102215.06
2022-11-26T19:39:16.656Z,102209.81
2022-11-26T19:41:43.983Z,102210.69
2022-11-26T19:44:11.407Z,102205.53
2022-11-26T19:46:40.834Z,102202.91
2022-11-26T19:49:11.268Z,102210.88
2022-11-26T19:51:38.451Z,102206.75
2022-11-26T19:54:06.106Z,102203.31
2022-11-26T19:56:34.165Z,102207.75
2022-11-26T19:59:02.336Z,102200.69
2022-11-26T20:01:32.017Z,102210.28
2022-11-26T20:04:00.684Z,102216.34
2022-11-26T20:06:29.999Z,102211.91
2022-11-26T20:09:00.639Z,102214.47
2022-11-26T20:11:28.850Z,102203.97
2022-11-26T20:13:57.172Z,102213.56
2022-11-26T20:16:29.052Z,102212.59
2022-11-26T20:18:56.843Z,102211.63
2022-11-26T20:21:26.583Z,102216.78
2022-11-26T20:23:55.347Z,102212.41
2022-11-26T20:26:25.408Z,102209.78
2022-11-26T20:28:53.591Z,102208.09
2022-11-26T20:31:23.963Z,102216.88
2022-11-26T20:33:53.022Z,102218.75
2022-11-26T20:36:22.745Z,102218.84
2022-11-26T20:38:57.889Z,102218.09
2022-11-26T20:41:26.364Z,102219.00
2022-11-26T20:43:58.699Z,102218.06
2022-11-26T20:46:28.432Z,102217.13
2022-11-26T20:48:56.428Z,102212.78
2022-11-26T20:51:24.145Z,102219.78
2022-11-26T20:53:52.124Z,102218.06
2022-11-26T20:56:21.053Z,102219.06
2022-11-26T20:58:49.944Z,102217.50
2022-11-26T21:01:18.382Z,102233.16
2022-11-26T21:03:45.892Z,102229.72
2022-11-26T21:06:14.136Z,102224.63
2022-11-26T21:08:41.819Z,102226.44
2022-11-26T21:11:09.483Z,102219.38
2022-11-26T21:13:37.855Z,102210.69
2022-11-26T21:16:06.400Z,102209.72
2022-11-26T21:18:34.099Z,102216.63
2022-11-26T21:21:10.518Z,102213.16
2022-11-26T21:23:39.285Z,102214.91
2022-11-26T21:26:11.758Z,102213.09
2022-11-26T21:28:41.616Z,102220.91
2022-11-26T21:31:13.554Z,102212.16
2022-11-26T21:33:40.702Z,102204.38
2022-11-26T21:36:10.766Z,102212.38
2022-11-26T21:38:38.217Z,102220.16
2022-11-26T21:41:11.605Z,102221.94
2022-11-26T21:43:40.023Z,102219.22
2022-11-26T21:46:10.227Z,102215.66
2022-11-26T21:48:37.521Z,102219.22
2022-11-26T21:51:12.331Z,102214.91
2022-11-26T21:53:39.788Z,102212.28
2022-11-26T21:56:16.948Z,102216.56
2022-11-26T21:58:44.584Z,102212.16
2022-11-26T22:01:19.963Z,102218.28
2022-11-26T22:03:51.081Z,102214.81
2022-11-26T22:06:19.543Z,102213.00
2022-11-26T22:08:50.031Z,102213.00
2022-11-26T22:11:23.221Z,102219.06
2022-11-26T22:13:50.799Z,102221.63
2022-11-26T22:16:20.547Z,102228.72
2022-11-26T22:18:48.092Z,102212.19
2022-11-26T22:21:35.632Z,102222.69
2022-11-26T22:24:04.006Z,102224.53
2022-11-26T22:26:31.769Z,102225.44
2022-11-26T22:28:59.290Z,102232.41
2022-11-26T22:31:31.899Z,102228.88
2022-11-26T22:34:01.430Z,102225.31
2022-11-26T22:36:28.698Z,102228.69
2022-11-26T22:38:56.407Z,102225.28
2022-11-26T22:41:23.532Z,102226.13
2022-11-26T22:43:51.066Z,102219.91
2022-11-26T22:46:20.991Z,102218.13
2022-11-26T22:48:50.139Z,102214.56
2022-11-26T22:51:17.526Z,102223.19
2022-11-26T22:53:44.782Z,102226.63
2022-11-26T22:56:12.024Z,102221.47
2022-11-26T22:58:39.234Z,102220.72
2022-11-26T23:01:08.425Z,102227.91
2022-11-26T23:03:37.320Z,102224.50
2022-11-26T23:06:07.862Z,102231.50
2022-11-26T23:08:36.109Z,102223.56
2022-11-26T23:11:08.668Z,102222.63
2022-11-26T23:13:36.073Z,102213.97
2022-11-26T23:16:07.394Z,102219.25
2022-11-26T23:18:35.631Z,102223.59
2022-11-26T23:21:04.146Z,102218.34
2022-11-26T23:23:31.343Z,102211.25
2022-11-26T23:25:58.568Z,102212.09
2022-11-26T23:28:25.802Z,102213.81
2022-11-26T23:30:53.184Z,102211.16
2022-11-26T23:33:20.593Z,102203.31
2022-11-26T23:35:48.278Z,102202.41
2022-11-26T23:38:18.572Z,102206.00
2022-11-26T23:40:53.419Z,102216.47
2022-11-26T23:43:21.206Z,102206.88
2022-11-26T23:45:48.744Z,102212.09
2022-11-26T23:48:16.578Z,102202.47
2022-11-26T23:50:44.101Z,102205.22
2022-11-26T23:53:11.471Z,102198.22
2022-11-26T23:55:38.880Z,102202.47
2022-11-26T23:58:06.351Z,102201.53
